Terminal Aerodrome Forecast
Issued by NWS Pittsburgh, PA

Current Version | Previous Version | Graphics & Text | Print | Product List | Glossary On
Versions: 1 2 3 4 5 6 7 8 9 10 11 12 13 14 15 16 17 18 19 20 21 22 23 24
000
FTUS41 KPBZ 282000 AAA
TAFPIT
TAF AMD
KPIT 282054Z 2821/2924 32008KT P6SM BKN025 OVC045
      TEMPO 2821/2824 BKN015 OVC025
     FM290600 32004KT 6SM BR BKN035
     FM291500 35004KT P6SM OVC100
     FM291700 34005KT P6SM BKN250=

USA.gov is the U.S. government's official web portal to all federal, state and local government web resources and services.